Time;durP1;ratioP1;P1;durP2;ratioP2;P2;SDS_P1;SDS_P2;PMS_P1;PMS_P2;Temp;Humidity;BMP_temperature;BMP_pressure;BME280_temperature;BME280_humidity;BME280_pressure;Samples;Min_cycle;Max_cycle;Signal;HPM_P1;HPM_P2
2022/08/17 00:00:48;;;;;;;8.28;6.50;;;;;;;21.08;100.00;97666.83;1718340;82;28099;-89
2022/08/17 00:03:23;;;;;;;8.93;6.87;;;;;;;21.08;100.00;97668.16;1721322;80;28166;-89
2022/08/17 00:06:01;;;;;;;9.63;6.92;;;;;;;21.11;100.00;97666.96;1714461;81;28120;-86
2022/08/17 00:08:36;;;;;;;9.40;6.58;;;;;;;21.11;100.00;97669.09;1693740;82;28106;-87
2022/08/17 00:11:09;;;;;;;9.15;7.08;;;;;;;21.11;100.00;97673.61;1718762;80;28120;-86
2022/08/17 00:13:39;;;;;;;9.83;6.83;;;;;;;21.11;100.00;97677.07;1738888;80;28092;-86
2022/08/17 00:16:08;;;;;;;10.32;6.90;;;;;;;21.11;100.00;97675.73;1712171;80;28478;-86
2022/08/17 00:18:35;;;;;;;8.93;6.78;;;;;;;21.08;100.00;97676.14;1715013;81;28289;-87
2022/08/17 00:21:04;;;;;;;9.35;7.12;;;;;;;21.05;100.00;97669.88;1715382;81;28077;-89
2022/08/17 00:23:30;;;;;;;9.25;7.10;;;;;;;21.07;100.00;97672.33;1720382;81;28241;-86
2022/08/17 00:25:56;;;;;;;8.58;7.03;;;;;;;21.02;100.00;97678.23;1725636;81;28272;-86
2022/08/17 00:28:23;;;;;;;11.57;7.42;;;;;;;20.98;100.00;97676.97;1726200;80;28096;-86
2022/08/17 00:30:50;;;;;;;11.80;7.33;;;;;;;20.94;100.00;97671.73;1719221;81;28237;-84
2022/08/17 00:33:21;;;;;;;11.18;7.60;;;;;;;20.92;100.00;97676.41;1725723;80;28497;-85
2022/08/17 00:35:48;;;;;;;12.47;7.07;;;;;;;20.88;100.00;97677.80;1725609;80;28147;-85
2022/08/17 00:38:22;;;;;;;9.80;7.28;;;;;;;20.82;100.00;97670.58;1716166;80;28086;-88
2022/08/17 00:40:52;;;;;;;10.05;7.47;;;;;;;20.76;100.00;97678.81;1711067;81;28192;-86
2022/08/17 00:43:34;;;;;;;10.45;7.72;;;;;;;20.71;100.00;97675.90;1721231;82;28143;-86
2022/08/17 00:46:06;;;;;;;11.38;7.80;;;;;;;20.66;100.00;97674.82;1724681;80;28159;-85
2022/08/17 00:48:33;;;;;;;10.23;7.65;;;;;;;20.62;100.00;97673.56;1719084;80;28138;-85
2022/08/17 00:51:30;;;;;;;9.08;7.53;;;;;;;20.55;100.00;97678.80;1727989;81;28195;-85
2022/08/17 00:54:09;;;;;;;9.38;7.58;;;;;;;20.49;100.00;97676.06;1721928;81;28118;-85
2022/08/17 00:56:42;;;;;;;10.80;7.35;;;;;;;20.47;100.00;97678.90;1715104;80;28202;-84
2022/08/17 00:59:10;;;;;;;10.63;7.40;;;;;;;20.46;100.00;97679.41;1703722;81;28196;-85
2022/08/17 01:01:37;;;;;;;10.08;7.12;;;;;;;20.48;100.00;97679.23;1702333;80;28127;-85
2022/08/17 01:04:04;;;;;;;9.90;7.80;;;;;;;20.48;100.00;97673.91;1707667;81;28117;-86
2022/08/17 01:06:32;;;;;;;11.83;8.38;;;;;;;20.49;100.00;97673.41;1727542;80;28099;-86
2022/08/17 01:09:02;;;;;;;12.75;7.83;;;;;;;20.51;100.00;97674.05;1680800;82;28251;-89
2022/08/17 01:11:31;;;;;;;10.75;7.12;;;;;;;20.52;100.00;97673.02;1682734;83;28183;-86
2022/08/17 01:13:58;;;;;;;10.75;7.75;;;;;;;20.52;100.00;97673.02;1655400;84;28139;-85
2022/08/17 01:16:28;;;;;;;11.20;8.18;;;;;;;20.54;100.00;97675.82;1674968;83;28064;-85
2022/08/17 01:18:57;;;;;;;13.43;7.75;;;;;;;20.53;100.00;97674.67;1630510;85;28079;-85
2022/08/17 01:21:39;;;;;;;11.25;8.23;;;;;;;20.54;100.00;97678.98;1728472;81;28054;-87
2022/08/17 01:24:06;;;;;;;13.10;8.60;;;;;;;20.51;100.00;97680.16;1700974;81;28109;-84
2022/08/17 01:26:39;;;;;;;9.85;7.22;;;;;;;20.52;100.00;97680.99;1723244;81;28141;-86
2022/08/17 01:29:06;;;;;;;10.68;7.92;;;;;;;20.53;100.00;97682.64;1726525;81;28160;-88
2022/08/17 01:31:36;;;;;;;11.88;8.40;;;;;;;20.54;100.00;97683.80;1718501;81;28209;-88
2022/08/17 01:34:06;;;;;;;12.03;8.05;;;;;;;20.56;100.00;97688.93;1714570;81;28236;-87
2022/08/17 01:36:32;;;;;;;12.03;8.28;;;;;;;20.56;100.00;97690.27;1709073;82;28215;-85
2022/08/17 01:38:58;;;;;;;12.95;7.95;;;;;;;20.55;100.00;97688.11;1722412;80;28107;-88
2022/08/17 01:41:27;;;;;;;11.25;8.08;;;;;;;20.58;100.00;97688.22;1722519;81;28259;-85
2022/08/17 01:43:57;;;;;;;11.88;7.95;;;;;;;20.58;100.00;97687.72;1692721;81;28267;-87
2022/08/17 01:48:53;;;;;;;12.43;8.05;;;;;;;20.55;100.00;97691.27;1711867;81;28271;-85
2022/08/17 01:51:20;;;;;;;13.98;8.75;;;;;;;20.55;100.00;97689.44;1721212;82;28121;-86
2022/08/17 01:53:50;;;;;;;12.20;8.73;;;;;;;20.51;100.00;97686.02;1727826;80;28175;-85
2022/08/17 01:56:19;;;;;;;11.68;8.48;;;;;;;20.46;100.00;97684.72;1730868;80;28070;-86
2022/08/17 01:58:46;;;;;;;14.50;10.68;;;;;;;20.43;100.00;97690.42;1713391;82;28067;-86
2022/08/17 02:01:15;;;;;;;14.60;10.45;;;;;;;20.41;100.00;97687.12;1727131;80;28164;-85
2022/08/17 02:03:41;;;;;;;19.17;11.48;;;;;;;20.37;100.00;97687.19;1718855;81;28195;-85
2022/08/17 02:06:09;;;;;;;18.02;11.12;;;;;;;20.34;100.00;97680.92;1723060;80;28193;-90
2022/08/17 02:08:36;;;;;;;15.13;10.58;;;;;;;20.31;100.00;97679.95;1723084;81;28164;-86
2022/08/17 02:11:07;;;;;;;16.85;10.05;;;;;;;20.32;100.00;97679.45;1726111;80;43407;-86
2022/08/17 02:13:34;;;;;;;;;;;;;;;20.28;100.00;97682.14;1723331;81;28062;-85
2022/08/17 02:16:01;;;;;;;16.70;10.75;;;;;;;20.24;100.00;97682.17;1716197;81;26056;-85
2022/08/17 02:18:27;;;;;;;16.07;10.03;;;;;;;20.16;100.00;97683.63;1720552;81;28199;-84
2022/08/17 02:20:53;;;;;;;15.25;9.90;;;;;;;20.13;100.00;97682.14;1712332;81;28192;-85
2022/08/17 02:23:22;;;;;;;16.60;9.78;;;;;;;20.13;100.00;97691.97;1718064;81;28135;-86
2022/08/17 02:25:48;;;;;;;15.55;10.20;;;;;;;20.13;100.00;97691.44;1717264;80;28123;-84
2022/08/17 02:28:16;;;;;;;14.70;9.50;;;;;;;20.13;100.00;97690.11;1713893;81;28208;-86
2022/08/17 02:30:44;;;;;;;15.63;9.88;;;;;;;20.13;100.00;97687.45;1711263;82;28062;-86
2022/08/17 02:33:10;;;;;;;16.30;10.30;;;;;;;20.10;100.00;97691.83;1708143;82;28082;-86
2022/08/17 02:35:38;;;;;;;13.72;9.55;;;;;;;20.10;100.00;97694.48;1717350;80;28159;-86
2022/08/17 02:38:05;;;;;;;15.65;9.45;;;;;;;20.09;100.00;97691.50;1723631;80;28219;-88
2022/08/17 02:40:33;;;;;;;13.15;9.00;;;;;;;20.04;100.00;97684.59;1718136;80;28079;-85
2022/08/17 02:42:59;;;;;;;15.63;9.15;;;;;;;20.11;100.00;97694.81;1713639;82;28168;-87
2022/08/17 02:45:25;;;;;;;15.30;9.18;;;;;;;20.09;100.00;97696.81;1709114;81;28161;-86
2022/08/17 02:47:52;;;;;;;13.10;8.88;;;;;;;20.11;100.00;97699.30;1721220;81;28074;-88
2022/08/17 02:50:21;;;;;;;15.45;9.98;;;;;;;20.09;100.00;97705.28;1723205;81;28046;-87
2022/08/17 02:52:49;;;;;;;13.40;9.08;;;;;;;20.07;100.00;97705.49;1725834;80;28138;-88
2022/08/17 02:55:25;;;;;;;13.78;10.05;;;;;;;20.03;100.00;97701.03;1720663;81;28056;-86
2022/08/17 02:57:53;;;;;;;15.18;8.90;;;;;;;20.00;100.00;97697.43;1719184;80;28112;-86
2022/08/17 03:00:23;;;;;;;12.85;9.08;;;;;;;19.99;100.00;97697.10;1715812;81;28141;-85
2022/08/17 03:02:49;;;;;;;11.85;8.33;;;;;;;19.97;100.00;97695.12;1721082;80;28117;-85
2022/08/17 03:05:18;;;;;;;12.33;8.60;;;;;;;19.97;100.00;97695.62;1721762;81;28141;-85
2022/08/17 03:07:45;;;;;;;13.08;9.08;;;;;;;19.98;100.00;97696.78;1724568;81;28102;-86
2022/08/17 03:10:12;;;;;;;11.83;8.10;;;;;;;19.96;100.00;97700.14;1718594;81;28120;-85
2022/08/17 03:12:39;;;;;;;;;;;;;;;19.97;100.00;97700.44;1725503;81;28257;-86
2022/08/17 03:15:07;;;;;;;;;;;;;;;19.96;100.00;97701.47;1735868;80;22006;-88
2022/08/17 03:17:33;;;;;;;;;;;;;;;19.92;100.00;97706.80;1734092;81;26274;-87
2022/08/17 03:19:59;;;;;;;;;;;;;;;19.86;100.00;97715.50;1728387;81;20264;-86
2022/08/17 03:22:28;;;;;;;;;;;;;;;19.89;100.00;97716.48;1718213;82;20340;-87
2022/08/17 03:24:57;;;;;;;;;;;;;;;19.90;100.00;97714.66;1729640;80;24867;-90
2022/08/17 03:27:23;;;;;;;;;;;;;;;19.93;100.00;97722.23;1672665;83;21979;-87
2022/08/17 03:29:49;;;;;;;13.40;8.68;;;;;;;19.92;100.00;97714.77;1663254;84;42360;-87
2022/08/17 03:32:16;;;;;;;12.55;8.43;;;;;;;19.93;100.00;97713.77;1690954;82;28052;-89
2022/08/17 03:34:43;;;;;;;11.90;8.55;;;;;;;19.91;100.00;97718.43;1678377;83;28498;-89
2022/08/17 03:37:09;;;;;;;11.00;8.90;;;;;;;19.87;100.00;97713.67;1685332;83;28302;-85
2022/08/17 03:39:36;;;;;;;10.95;8.50;;;;;;;19.87;100.00;97714.50;1695368;82;22061;-85
2022/08/17 03:42:07;;;;;;;10.68;8.48;;;;;;;19.86;100.00;97718.16;1688786;82;26003;-85
2022/08/17 03:44:34;;;;;;;14.38;8.63;;;;;;;19.85;100.00;97727.16;1683348;82;28096;-88
2022/08/17 03:57:59;;;;;;;9.58;8.00;;;;;;;19.80;100.00;97723.40;1655531;85;28130;-84
2022/08/17 04:00:26;;;;;;;9.25;7.90;;;;;;;19.84;100.00;97727.33;1714808;81;28124;-87
2022/08/17 04:02:52;;;;;;;10.72;7.83;;;;;;;19.88;100.00;97728.61;1714444;82;28492;-87
2022/08/17 04:05:22;;;;;;;10.03;7.65;;;;;;;19.90;100.00;97728.76;1718558;81;28118;-89
2022/08/17 04:07:47;;;;;;;13.53;8.55;;;;;;;19.93;100.00;97736.84;1714366;81;28058;-88
2022/08/17 04:10:16;;;;;;;12.43;8.43;;;;;;;19.92;100.00;97734.69;1732092;81;43584;-87
2022/08/17 04:12:47;;;;;;;10.35;7.80;;;;;;;19.91;100.00;97729.05;1728317;81;28137;-89
2022/08/17 04:15:14;;;;;;;11.05;8.50;;;;;;;19.85;100.00;97723.67;1720513;80;28103;-89
2022/08/17 04:17:40;;;;;;;10.10;8.00;;;;;;;19.81;100.00;97726.34;1712300;81;28066;-86
2022/08/17 04:20:07;;;;;;;9.70;7.70;;;;;;;19.78;100.00;97734.70;1721726;81;28102;-87
2022/08/17 04:22:35;;;;;;;9.40;7.30;;;;;;;19.78;100.00;97734.70;1723114;80;28223;-87
2022/08/17 04:25:05;;;;;;;12.73;7.85;;;;;;;19.80;100.00;97733.48;1711276;81;28128;-90
2022/08/17 04:27:31;;;;;;;12.50;8.48;;;;;;;19.83;100.00;97737.63;1719499;81;28160;-85
2022/08/17 04:30:01;;;;;;;11.10;7.25;;;;;;;19.83;100.00;97732.31;1721523;81;28116;-89
2022/08/17 04:32:27;;;;;;;12.40;8.15;;;;;;;19.84;100.00;97736.63;1721678;81;28008;-89
2022/08/17 04:34:54;;;;;;;13.93;8.10;;;;;;;19.85;100.00;97746.25;1717938;82;28081;-89
2022/08/17 04:37:20;;;;;;;12.00;8.08;;;;;;;19.85;100.00;97744.42;1718802;82;28059;-86
2022/08/17 04:42:05;;;;;;;10.63;7.65;;;;;;;19.90;100.00;97757.14;1723188;81;28200;-86
2022/08/17 04:42:15;;;;;;;11.48;8.63;;;;;;;19.90;100.00;97752.66;1720719;81;28078;-86
2022/08/17 04:44:43;;;;;;;11.97;8.08;;;;;;;19.91;100.00;97760.13;1726459;81;28007;-87
2022/08/17 04:47:08;;;;;;;11.70;8.33;;;;;;;19.91;100.00;97756.14;1713622;81;28001;-87
2022/08/17 04:49:41;;;;;;;10.13;7.65;;;;;;;19.93;100.00;97764.23;1721423;81;43639;-87
2022/08/17 04:52:07;;;;;;;12.40;8.18;;;;;;;19.96;100.00;97764.39;1712343;82;28183;-86
2022/08/17 04:54:35;;;;;;;11.68;7.70;;;;;;;20.01;100.00;97763.34;1722836;81;28232;-87
2022/08/17 04:57:01;;;;;;;9.25;7.30;;;;;;;20.07;100.00;97771.91;1704534;82;28444;-88
2022/08/17 04:59:27;;;;;;;9.05;7.15;;;;;;;20.09;100.00;97769.88;1729593;82;28220;-87
2022/08/17 05:01:53;;;;;;;9.33;7.22;;;;;;;20.15;100.00;97774.45;1728297;82;28098;-88
2022/08/17 05:04:22;;;;;;;10.50;7.50;;;;;;;20.24;100.00;97782.64;1726204;82;28063;-85
2022/08/17 05:06:49;;;;;;;11.00;7.92;;;;;;;20.33;100.00;97780.27;1695360;82;28157;-84
2022/08/17 05:09:22;;;;;;;10.03;7.17;;;;;;;20.38;100.00;97779.20;1652025;85;28080;-85
2022/08/17 05:11:48;;;;;;;9.73;7.08;;;;;;;20.46;100.00;97783.08;1659192;84;28140;-87
2022/08/17 05:14:14;;;;;;;8.98;7.05;;;;;;;20.47;100.00;97783.90;1667964;82;28244;-86
2022/08/17 05:16:40;;;;;;;9.20;7.22;;;;;;;20.44;100.00;97780.30;1691959;82;28032;-87
2022/08/17 05:19:10;;;;;;;8.85;6.47;;;;;;;20.50;100.00;97782.72;1674959;83;28235;-87
2022/08/17 05:21:36;;;;;;;9.85;6.47;;;;;;;20.63;100.00;97784.20;1650519;84;28097;-86
2022/08/17 05:24:03;;;;;;;8.38;7.47;;;;;;;20.76;100.00;97783.86;1661625;84;28116;-88
2022/08/17 05:26:29;;;;;;;9.15;6.90;;;;;;;20.85;100.00;97787.22;1662308;84;28238;-85
2022/08/17 05:28:57;;;;;;;10.68;7.15;;;;;;;20.91;100.00;97777.67;1666825;83;28118;-86
2022/08/17 05:31:23;;;;;;;11.35;7.53;;;;;;;20.99;100.00;97774.91;1726511;81;28011;-85
2022/08/17 05:33:49;;;;;;;9.03;7.58;;;;;;;21.05;100.00;97773.65;1720842;81;28261;-85
2022/08/17 05:36:21;;;;;;;10.85;7.40;;;;;;;21.12;100.00;97771.86;1713606;81;28168;-85
2022/08/17 05:38:47;;;;;;;9.60;7.37;;;;;;;21.20;100.00;97776.27;1713739;82;28097;-86
2022/08/17 05:41:14;;;;;;;10.88;7.53;;;;;;;21.25;100.00;97779.19;1719480;81;28113;-85
2022/08/17 05:43:41;;;;;;;11.25;7.30;;;;;;;21.29;100.00;97780.45;1708044;80;28285;-86
2022/08/17 05:46:19;;;;;;;8.98;6.83;;;;;;;21.34;100.00;97783.36;1722281;81;28254;-86
2022/08/17 05:48:49;;;;;;;9.40;7.12;;;;;;;21.39;100.00;97774.80;1718392;82;28108;-85
2022/08/17 05:51:35;;;;;;;9.30;6.78;;;;;;;21.46;100.00;97773.02;1729084;81;28045;-86
2022/08/17 05:54:22;;;;;;;12.90;7.08;;;;;;;21.52;100.00;97776.25;1716709;81;28130;-86
2022/08/17 05:57:26;;;;;;;8.65;6.95;;;;;;;21.57;100.00;97782.65;1727911;80;28222;-86
2022/08/17 06:00:19;;;;;;;8.60;6.25;;;;;;;21.62;100.00;97780.23;1730182;81;28093;-85
2022/08/17 06:02:58;;;;;;;8.38;6.53;;;;;;;21.69;100.00;97786.95;1725461;80;28119;-86
2022/08/17 06:05:34;;;;;;;10.08;7.65;;;;;;;21.76;100.00;97787.83;1715713;81;28029;-86
2022/08/17 06:08:09;;;;;;;11.35;7.60;;;;;;;21.82;100.00;97787.03;1720186;81;28280;-86
2022/08/17 06:10:52;;;;;;;7.42;6.58;;;;;;;21.87;100.00;97784.64;1721368;81;28171;-89
2022/08/17 06:13:51;;;;;;;10.58;7.37;;;;;;;21.92;100.00;97786.72;1719515;81;28257;-86
2022/08/17 06:16:20;;;;;;;10.03;7.47;;;;;;;21.99;100.00;97783.09;1724934;81;28136;-86
2022/08/17 06:18:49;;;;;;;11.63;7.85;;;;;;;22.06;100.00;97779.14;1721423;80;28185;-89
2022/08/17 06:21:18;;;;;;;11.33;7.17;;;;;;;22.10;100.00;97774.55;1709294;81;38436;-86
2022/08/17 06:23:55;;;;;;;11.40;7.53;;;;;;;22.15;100.00;97770.50;1715282;81;28114;-88
2022/08/17 06:26:25;;;;;;;14.03;7.80;;;;;;;22.21;100.00;97775.02;1724090;81;28111;-89
2022/08/17 06:29:07;;;;;;;10.40;6.95;;;;;;;22.27;100.00;97775.56;1717784;82;28254;-85
2022/08/17 06:31:37;;;;;;;10.03;6.72;;;;;;;22.32;100.00;97781.13;1724390;81;28019;-89
2022/08/17 06:34:03;;;;;;;11.10;7.37;;;;;;;22.38;100.00;97779.01;1729754;81;28027;-85
2022/08/17 06:37:07;;;;;;;12.80;7.65;;;;;;;22.43;100.00;97775.23;1709453;81;28026;-85
2022/08/17 06:39:43;;;;;;;10.80;7.67;;;;;;;22.49;100.00;97777.11;1723986;81;28020;-86
2022/08/17 06:42:25;;;;;;;11.38;7.15;;;;;;;22.55;100.00;97778.99;1717029;82;28261;-86
2022/08/17 06:44:55;;;;;;;11.30;7.00;;;;;;;22.60;100.00;97779.72;1721556;82;28193;-90
2022/08/17 06:47:36;;;;;;;10.05;7.45;;;;;;;22.64;100.00;97780.45;1710589;81;28114;-86
2022/08/17 06:50:16;;;;;;;10.03;7.28;;;;;;;22.70;100.00;97782.84;1713581;82;28087;-86
2022/08/17 06:53:01;;;;;;;9.15;6.40;;;;;;;22.76;100.00;97786.91;1665093;83;28147;-86
2022/08/17 06:55:45;;;;;;;9.13;6.25;;;;;;;22.86;100.00;97781.18;1713057;81;28109;-89
2022/08/17 06:58:14;;;;;;;8.35;6.37;;;;;;;22.89;100.00;97775.46;1719665;81;28228;-87
2022/08/17 07:00:44;;;;;;;9.18;6.40;;;;;;;22.97;100.00;97778.44;1722435;81;28024;-89
2022/08/17 07:03:36;;;;;;;8.80;6.65;;;;;;;23.05;100.00;97779.60;1729477;81;28124;-86
2022/08/17 07:06:06;;;;;;;9.05;6.67;;;;;;;23.13;100.00;97786.11;1722267;81;28246;-87
2022/08/17 07:08:54;;;;;;;8.68;6.35;;;;;;;23.19;100.00;97782.09;1727803;81;28005;-87
2022/08/17 07:11:42;;;;;;;9.35;6.62;;;;;;;23.27;100.00;97777.08;1718863;81;28086;-87
2022/08/17 07:14:46;;;;;;;9.08;6.37;;;;;;;23.35;100.00;97779.03;1725358;81;28167;-86
2022/08/17 07:17:17;;;;;;;8.48;6.08;;;;;;;23.39;100.00;97779.98;1738920;79;28223;-86
2022/08/17 07:19:46;;;;;;;12.80;7.67;;;;;;;23.35;100.00;97783.55;1734070;80;28163;-86
2022/08/17 07:22:40;;;;;;;9.93;6.15;;;;;;;23.36;100.00;97784.69;1743441;79;28120;-86
2022/08/17 07:25:10;;;;;;;8.33;5.95;;;;;;;23.46;100.00;97788.31;1736920;79;28029;-85
2022/08/17 07:27:44;;;;;;;8.18;5.78;;;;;;;23.58;100.00;97780.01;1744883;79;28082;-87
2022/08/17 07:30:25;;;;;;;5.40;4.72;;;;;;;23.60;100.00;97787.31;1684476;83;28103;-87
2022/08/17 07:33:04;;;;;;;7.55;5.65;;;;;;;23.60;100.00;97783.31;1698405;81;28069;-86
2022/08/17 07:35:38;;;;;;;8.13;5.70;;;;;;;23.65;100.00;97781.35;1695253;81;28114;-85
2022/08/17 07:38:14;;;;;;;7.00;5.30;;;;;;;23.74;100.00;97784.11;1675089;82;28086;-86
2022/08/17 07:40:53;;;;;;;9.30;5.55;;;;;;;23.87;100.00;97785.45;1737153;80;28066;-86
2022/08/17 07:43:22;;;;;;;7.12;5.17;;;;;;;23.99;100.00;97784.31;1743408;79;28230;-86
2022/08/17 07:49:16;;;;;;;8.15;5.45;;;;;;;24.21;100.00;97784.41;1749784;80;28090;-86
2022/08/17 07:51:47;;;;;;;7.30;5.30;;;;;;;24.29;100.00;97789.52;1757460;79;28059;-86
2022/08/17 07:54:22;;;;;;;6.42;5.20;;;;;;;24.28;100.00;97789.20;1751775;79;28184;-86
2022/08/17 07:57:02;;;;;;;8.83;5.47;;;;;;;24.34;100.00;97788.89;1746130;79;28131;-86
2022/08/17 07:59:34;;;;;;;7.85;5.08;;;;;;;24.39;100.00;97795.77;1756578;79;27997;-86
2022/08/17 08:02:15;;;;;;;6.72;5.65;;;;;;;24.35;100.00;97791.36;1720563;81;28105;-89
2022/08/17 08:04:51;;;;;;;7.80;5.15;;;;;;;24.38;100.00;97791.47;1760271;79;28239;-86
2022/08/17 08:07:20;;;;;;;8.33;5.55;;;;;;;24.47;100.00;97794.20;1768388;79;28096;-85
2022/08/17 08:09:50;;;;;;;8.13;6.05;;;;;;;24.47;100.00;97803.06;1711498;81;28126;-86
2022/08/17 08:12:26;;;;;;;7.62;5.85;;;;;;;24.59;100.00;97806.73;1676528;82;29196;-86
2022/08/17 08:14:56;;;;;;;9.48;6.25;;;;;;;24.72;100.00;97804.50;1690740;83;28120;-86
2022/08/17 08:17:25;;;;;;;7.20;5.50;;;;;;;24.80;100.00;97802.94;1673383;83;28258;-86
2022/08/17 08:19:52;;;;;;;8.48;5.58;;;;;;;24.92;100.00;97801.28;1727826;80;28114;-85
2022/08/17 08:24:47;;;;;;;6.55;5.30;;;;;;;25.18;100.00;97805.66;1746826;79;28043;-89
2022/08/17 08:27:29;;;;;;;6.90;5.78;;;;;;;25.33;100.00;97802.16;1756891;79;28116;-89
2022/08/17 08:30:07;;;;;;;7.42;5.40;;;;;;;25.42;100.00;97793.33;1758618;79;28243;-85
2022/08/17 08:33:01;;;;;;;6.17;5.53;;;;;;;25.55;100.00;97797.27;1764995;79;28187;-85
2022/08/17 08:36:02;;;;;;;7.37;5.15;;;;;;;25.60;100.00;97804.68;1740478;80;28040;-85
2022/08/17 08:38:52;;;;;;;7.40;5.70;;;;;;;25.66;100.00;97798.45;1761393;79;28130;-85
2022/08/17 08:41:37;;;;;;;7.42;5.67;;;;;;;25.78;100.00;97804.23;1735036;79;28106;-85
2022/08/17 08:44:25;;;;;;;6.42;5.40;;;;;;;25.94;100.00;97801.52;1723515;79;28109;-85
2022/08/17 08:47:03;;;;;;;8.20;5.47;;;;;;;25.94;100.00;97804.20;1729137;80;28082;-86
2022/08/17 08:49:39;;;;;;;7.05;4.97;;;;;;;26.05;100.00;97807.50;1752239;79;28172;-89
2022/08/17 08:52:23;;;;;;;6.72;5.40;;;;;;;26.18;100.00;97809.25;1744093;80;28107;-88
2022/08/17 08:54:55;;;;;;;6.03;5.03;;;;;;;26.19;100.00;97807.66;1755024;79;28164;-89
2022/08/17 08:57:34;;;;;;;9.43;6.12;;;;;;;26.19;100.00;97803.64;1733245;79;28073;-85
2022/08/17 09:00:18;;;;;;;8.28;5.70;;;;;;;26.26;100.00;97809.50;1756810;79;28105;-85
2022/08/17 09:02:54;;;;;;;7.80;6.05;;;;;;;26.30;100.00;97804.80;1767545;79;28224;-85
2022/08/17 09:05:54;;;;;;;7.30;6.08;;;;;;;26.27;100.00;97805.77;1752677;79;28123;-89
2022/08/17 09:08:40;;;;;;;8.30;5.70;;;;;;;26.34;100.00;97799.31;1746532;79;28130;-88
2022/08/17 09:11:30;;;;;;;9.60;6.03;;;;;;;26.53;100.00;97809.52;1732131;80;28104;-89
2022/08/17 09:14:07;;;;;;;10.50;6.40;;;;;;;26.52;100.00;97807.34;1762287;78;28132;-89
2022/08/17 09:16:39;;;;;;;8.05;5.72;;;;;;;26.57;100.00;97804.81;1724006;81;28089;-89
2022/08/17 09:19:18;;;;;;;7.03;5.62;;;;;;;26.76;100.00;97809.66;1766852;79;28194;-89
2022/08/17 09:21:51;;;;;;;9.40;6.00;;;;;;;26.92;100.00;97806.39;1732479;79;28172;-86
2022/08/17 09:24:33;;;;;;;6.35;5.37;;;;;;;27.02;100.00;97803.16;1761651;78;28083;-87
2022/08/17 09:27:03;;;;;;;6.75;5.90;;;;;;;27.13;100.00;97802.39;1757590;79;28121;-86
2022/08/17 09:29:33;;;;;;;6.95;5.85;;;;;;;27.12;100.00;97803.43;1756678;79;28076;-89
2022/08/17 09:32:03;;;;;;;8.58;5.70;;;;;;;27.12;100.00;97806.64;1743212;80;28061;-89
2022/08/17 09:34:36;;;;;;;6.35;5.25;;;;;;;27.10;100.00;97801.52;1766980;79;28218;-89
2022/08/17 09:37:12;;;;;;;6.95;5.33;;;;;;;27.15;100.00;97805.68;1751893;79;28114;-86
2022/08/17 09:40:06;;;;;;;9.18;5.97;;;;;;;27.22;100.00;97801.56;1751807;80;28099;-86
2022/08/17 09:42:34;;;;;;;9.33;5.72;;;;;;;27.21;100.00;97802.61;1712759;81;28130;-89
2022/08/17 09:45:28;;;;;;;6.20;5.30;;;;;;;27.30;100.00;97795.84;1725108;80;28207;-86
2022/08/17 09:50:54;;;;;;;9.03;5.40;;;;;;;27.30;100.00;97791.81;1697261;81;20290;-87
2022/08/17 09:53:21;;;;;;;7.67;5.75;;;;;;;27.23;100.00;97795.94;1666907;82;28170;-86
2022/08/17 09:56:26;;;;;;;6.40;5.60;;;;;;;27.18;100.00;97793.64;1716459;81;28109;-86
2022/08/17 09:59:18;;;;;;;6.25;5.65;;;;;;;27.21;100.00;97791.86;1716915;81;28141;-86
2022/08/17 10:02:05;;;;;;;7.05;5.78;;;;;;;27.32;100.00;97789.73;1705448;81;28004;-86
2022/08/17 10:04:46;;;;;;;6.20;5.20;;;;;;;27.48;100.00;97778.32;1696030;82;28112;-86
2022/08/17 10:07:19;;;;;;;7.20;5.22;;;;;;;27.63;100.00;97783.28;1706964;81;28189;-89
2022/08/17 10:10:24;;;;;;;6.05;5.45;;;;;;;27.73;100.00;97793.76;1711400;81;27993;-89
2022/08/17 10:13:12;;;;;;;6.83;5.80;;;;;;;27.62;100.00;97782.45;1637470;84;28015;-86
2022/08/17 10:16:01;;;;;;;6.03;5.40;;;;;;;27.57;100.00;97776.95;1686718;83;28112;-86
2022/08/17 10:18:50;;;;;;;12.53;7.47;;;;;;;27.58;100.00;97785.33;1709852;81;28157;-86
2022/08/17 10:27:25;;;;;;;7.30;6.17;;;;;;;28.00;100.00;97794.12;1714003;81;28147;-85
2022/08/17 10:29:58;;;;;;;9.25;6.05;;;;;;;28.13;100.00;97797.16;1721299;80;28149;-85
2022/08/17 10:32:34;;;;;;;7.35;5.42;;;;;;;28.25;100.00;97797.97;1713174;80;28092;-85
2022/08/17 10:35:29;;;;;;;9.95;5.58;;;;;;;28.39;100.00;97792.63;1720697;80;28159;-86
2022/08/17 10:38:06;;;;;;;7.50;5.55;;;;;;;28.40;100.00;97794.79;1671647;82;28071;-86
2022/08/17 10:41:08;;;;;;;5.87;5.12;;;;;;;28.30;100.00;97792.70;1637028;84;28139;-85
2022/08/17 10:43:35;;;;;;;;;;;;;;;28.27;100.00;97788.59;1717051;81;28077;-86
2022/08/17 10:46:04;;;;;;;8.65;5.70;;;;;;;28.39;100.00;97788.59;1678321;83;20440;-86
2022/08/17 10:48:36;;;;;;;9.95;5.55;;;;;;;28.48;100.00;97784.47;1664730;84;28123;-89
2022/08/17 10:51:09;;;;;;;5.20;4.70;;;;;;;28.54;100.00;97786.73;1716688;81;28104;-88
2022/08/17 10:53:42;;;;;;;7.47;5.30;;;;;;;28.55;100.00;97785.16;1713237;81;28176;-89
2022/08/17 10:56:21;;;;;;;6.75;5.62;;;;;;;28.52;100.00;97782.95;1714903;80;28168;-89
2022/08/17 10:58:57;;;;;;;6.20;5.60;;;;;;;28.48;100.00;97784.98;1733244;81;28115;-86
2022/08/17 11:01:45;;;;;;;6.35;4.70;;;;;;;28.47;100.00;97782.85;1725760;80;28014;-86
2022/08/17 11:04:24;;;;;;;6.85;4.87;;;;;;;28.51;99.40;97787.22;1656093;81;28100;-87
2022/08/17 11:07:09;;;;;;;6.45;5.50;;;;;;;28.46;97.51;97785.25;1710921;80;28081;-85
2022/08/17 11:10:12;;;;;;;8.40;5.28;;;;;;;28.48;96.39;97795.76;1710596;81;28181;-86
2022/08/17 11:13:17;;;;;;;7.55;4.92;;;;;;;28.59;96.26;97797.61;1713170;80;28168;-86
2022/08/17 11:15:53;;;;;;;9.68;5.33;;;;;;;28.72;96.09;97793.31;1712979;81;28089;-86
2022/08/17 11:18:49;;;;;;;6.53;5.37;;;;;;;28.71;95.27;97799.75;1713904;81;28049;-86
2022/08/17 11:21:33;;;;;;;5.40;4.90;;;;;;;28.73;94.51;97796.86;1711154;80;28072;-87
2022/08/17 11:24:18;;;;;;;8.95;5.10;;;;;;;28.80;94.31;97794.34;1722421;81;28121;-86
2022/08/17 11:27:07;;;;;;;7.03;5.45;;;;;;;28.86;93.77;97789.31;1642754;85;28145;-87
2022/08/17 11:29:44;;;;;;;7.03;5.28;;;;;;;28.92;93.03;97788.89;1685491;82;28051;-87
2022/08/17 11:32:13;;;;;;;7.37;5.37;;;;;;;28.88;91.90;97790.43;1689151;82;28077;-87
2022/08/17 11:34:43;;;;;;;5.62;5.12;;;;;;;28.84;91.08;97786.59;1668448;83;28114;-87
2022/08/17 11:37:31;;;;;;;6.12;5.10;;;;;;;28.84;90.65;97783.37;1679174;82;28103;-86
2022/08/17 11:40:12;;;;;;;5.22;4.72;;;;;;;28.87;90.46;97786.09;1685145;82;28160;-87
2022/08/17 11:42:38;;;;;;;7.70;4.62;;;;;;;28.80;89.75;97776.01;1656815;83;28145;-87
2022/08/17 11:45:39;;;;;;;7.10;5.08;;;;;;;28.83;89.29;97778.21;1674720;82;28229;-87
2022/08/17 11:51:34;;;;;;;6.00;4.90;;;;;;;28.59;87.43;97768.81;1665377;84;28264;-89
2022/08/17 11:54:05;;;;;;;5.85;4.75;;;;;;;28.67;86.98;97767.63;1715022;81;28068;-87
2022/08/17 11:56:39;;;;;;;6.67;4.85;;;;;;;28.79;86.59;97767.63;1719889;81;28124;-87
2022/08/17 11:59:35;;;;;;;6.53;4.87;;;;;;;28.83;85.82;97757.48;1716371;81;28245;-87
2022/08/17 12:02:31;;;;;;;5.58;4.80;;;;;;;28.87;85.19;97760.50;1699592;80;28124;-87
2022/08/17 12:05:16;;;;;;;6.12;5.03;;;;;;;28.95;85.21;97761.48;1706835;81;28065;-87
2022/08/17 12:07:48;;;;;;;7.67;5.28;;;;;;;29.21;85.97;97751.45;1684138;82;28096;-87
2022/08/17 12:10:17;;;;;;;5.78;5.10;;;;;;;29.39;86.49;97748.58;1731101;81;28207;-89
2022/08/17 12:12:46;;;;;;;7.05;4.70;;;;;;;29.51;86.48;97741.20;1698696;82;28116;-86
2022/08/17 12:15:18;;;;;;;7.42;4.90;;;;;;;29.61;86.36;97745.16;1712523;81;28234;-87
2022/08/17 12:17:53;;;;;;;7.90;5.12;;;;;;;29.74;86.02;97754.24;1713389;81;28101;-87
2022/08/17 12:20:23;;;;;;;5.87;5.12;;;;;;;29.83;85.51;97750.09;1716636;81;28020;-87
2022/08/17 12:23:24;;;;;;;5.78;5.00;;;;;;;29.88;84.55;97751.52;1725257;80;28180;-87
2022/08/17 12:26:18;;;;;;;6.33;5.17;;;;;;;29.96;84.32;97750.30;1687940;81;28107;-87
2022/08/17 12:28:47;;;;;;;7.65;5.22;;;;;;;30.15;84.43;97748.44;1679217;81;28119;-87